Campbellton, Canada
Current Conditions -  °F | °C
As of 6:00 PM on Saturday 25 Oct 2014 (Local Time) from CZBF Reporting Station
Drizzle Drizzle  
Wind Chill: 38°   Ceiling: 500
Heat Index: 41°   Visibility: 3mi
Dew Point: 39°   Wind: 5mph
Humidity: 93%   Direction: 10°N
Pressure: 29.59"   Gusts: NA
Location:  48°N, 66.33°W
Report Text: CZBF 252100Z 01004KT 350V060 3SM -DZ BR OVC005 05/04 A2959 RMK ST8 VIS 1 1/4 E SLP022
Loading
Personal Weather Stations






























Interactive Weather Map
Tropical Storm Tracking
New forecast layout! Learn more

10-Day Weather Forecast

Advertisements
Track Severe Weather on mobile